OPA Logo
 

ASOS: KRDM
At:2017.06.26 1256 UTC
Wind:130° @ 3KT
Viz: 10 mile(s)
Sky: clear
Temp: 62.1 F (16.7 C)
DewP: 48.9 F (9.4 C)
RH: 62%
Baro: 29.98 in.
ob: KRDM 261256Z 13003KT 10SM CLR 17/09 A2998 RMK AO2 SLP116 T01670094
Apache-SSL Logo

Valid HTML 4.01!

Central Oregon OPA Chapter

Chapter Officers 2006:

President
Gary E. Miller
109 NW Wilmington Ave.
Bend OR 97701
541 382-8588
gem@rellim.com

Vice President:
Open

Secretary/Treasurer:
Don Wilfong
210 SE Cessna Dr
Bend OR 97702
541 389-1456
dwnw@bendbroadband.com


Web page by: gem@rellim.com